Time;durP1;ratioP1;P1;durP2;ratioP2;P2;SDS_P1;SDS_P2;PMS_P1;PMS_P2;Temp;Humidity;BMP_temperature;BMP_pressure;BME280_temperature;BME280_humidity;BME280_pressure;Samples;Min_cycle;Max_cycle;Signal;HPM_P1;HPM_P2
2024/04/25 00:02:15;;;;;;;7.18;2.28;;;10.80;54.10;;;;;;6837434;26;19993;-68
2024/04/25 00:05:17;;;;;;;6.18;2.25;;;10.80;54.20;;;;;;6836744;26;20061;-67
2024/04/25 00:08:18;;;;;;;3.78;2.28;;;10.80;54.20;;;;;;6837598;26;20089;-69
2024/04/25 00:11:21;;;;;;;6.65;2.63;;;10.70;54.10;;;;;;6838344;26;19997;-66
2024/04/25 00:14:21;;;;;;;13.65;3.28;;;10.80;54.10;;;;;;6805706;26;20387;-67
2024/04/25 00:17:22;;;;;;;3.85;2.08;;;10.80;54.10;;;;;;6804164;26;19998;-68
2024/04/25 00:20:23;;;;;;;7.70;2.78;;;10.80;54.00;;;;;;6836332;26;20092;-67
2024/04/25 00:23:25;;;;;;;3.92;1.80;;;10.80;53.90;;;;;;6835797;25;20371;-66
2024/04/25 00:26:25;;;;;;;5.60;2.13;;;10.80;53.80;;;;;;6805991;26;20002;-68
2024/04/25 00:29:26;;;;;;;3.53;2.30;;;10.70;53.80;;;;;;6797491;26;20001;-67
2024/04/25 00:32:27;;;;;;;5.82;2.17;;;10.80;53.70;;;;;;6837316;26;20009;-68
2024/04/25 00:35:28;;;;;;;5.72;2.13;;;10.70;53.60;;;;;;6837041;26;19998;-67
2024/04/25 00:38:29;;;;;;;5.85;2.50;;;10.70;53.50;;;;;;6805834;26;20044;-68
2024/04/25 00:41:30;;;;;;;7.28;2.22;;;10.70;53.40;;;;;;6836050;25;20017;-68
2024/04/25 00:44:30;;;;;;;4.63;1.85;;;10.70;53.40;;;;;;6837003;26;20417;-68
2024/04/25 00:47:32;;;;;;;2.75;2.00;;;10.70;53.40;;;;;;6835946;26;20030;-67
2024/04/25 00:50:35;;;;;;;3.17;2.13;;;10.70;53.20;;;;;;6837527;26;19998;-67
2024/04/25 00:53:36;;;;;;;5.50;2.78;;;10.70;53.00;;;;;;6835253;26;20298;-67
2024/04/25 00:56:38;;;;;;;2.30;1.70;;;10.70;52.90;;;;;;6837966;26;20388;-68
2024/04/25 00:59:42;;;;;;;3.53;1.95;;;10.70;52.80;;;;;;6835712;26;20562;-67
2024/04/25 01:02:44;;;;;;;5.38;2.70;;;10.70;52.70;;;;;;6836620;26;19998;-66
2024/04/25 01:05:46;;;;;;;4.50;1.85;;;10.70;52.70;;;;;;6835696;26;20001;-68
2024/04/25 01:08:49;;;;;;;3.22;1.65;;;10.70;52.70;;;;;;6838121;25;20302;-67
2024/04/25 01:11:51;;;;;;;10.15;2.00;;;10.70;52.80;;;;;;6804510;26;20110;-66
2024/04/25 01:14:52;;;;;;;11.43;2.53;;;10.70;53.40;;;;;;6800446;26;20001;-67
2024/04/25 01:17:54;;;;;;;3.28;1.48;;;10.70;52.80;;;;;;6835564;25;20001;-67
2024/04/25 01:20:55;;;;;;;8.00;1.85;;;10.70;52.80;;;;;;6834677;26;20017;-67
2024/04/25 01:24:00;;;;;;;7.28;1.70;;;10.70;52.70;;;;;;6835022;26;20086;-68
2024/04/25 01:27:03;;;;;;;4.28;1.98;;;10.60;52.60;;;;;;6837239;25;19997;-67
2024/04/25 01:30:06;;;;;;;2.47;1.40;;;10.60;52.60;;;;;;6837038;26;20134;-66
2024/04/25 01:33:07;;;;;;;3.83;1.30;;;10.50;52.50;;;;;;6835403;26;20101;-67
2024/04/25 01:36:08;;;;;;;3.70;1.67;;;10.50;52.60;;;;;;6804521;26;20041;-66
2024/04/25 01:39:10;;;;;;;2.72;1.80;;;10.40;52.70;;;;;;6803451;26;20299;-68
2024/04/25 01:42:11;;;;;;;5.50;2.50;;;10.40;52.90;;;;;;6834862;26;20489;-67
2024/04/25 01:45:12;;;;;;;8.60;2.95;;;10.30;53.20;;;;;;6837283;25;20041;-66
2024/04/25 01:48:15;;;;;;;8.38;2.65;;;10.30;53.70;;;;;;6835505;26;20006;-68
2024/04/25 01:51:17;;;;;;;8.50;2.65;;;10.20;54.10;;;;;;6836837;26;20001;-66
2024/04/25 01:54:18;;;;;;;2.72;2.13;;;10.20;54.40;;;;;;6836453;25;20001;-66
2024/04/25 01:57:20;;;;;;;5.50;2.55;;;10.20;54.70;;;;;;6833705;26;20008;-66
2024/04/25 02:00:22;;;;;;;8.27;2.53;;;10.20;54.90;;;;;;6775015;26;19997;-67
2024/04/25 02:03:23;;;;;;;2.75;1.92;;;10.10;55.10;;;;;;6838842;25;20017;-67
2024/04/25 02:06:25;;;;;;;3.55;2.17;;;10.00;55.40;;;;;;6837156;25;20021;-67
2024/04/25 02:09:26;;;;;;;4.10;2.10;;;9.90;55.50;;;;;;6803518;26;20002;-67
2024/04/25 02:12:27;;;;;;;5.60;2.15;;;9.90;55.60;;;;;;6804610;26;19989;-68
2024/04/25 02:15:28;;;;;;;2.40;1.83;;;9.80;55.80;;;;;;6781869;26;20506;-67
2024/04/25 02:18:29;;;;;;;3.75;1.90;;;9.80;56.00;;;;;;6806938;26;20016;-67
2024/04/25 02:28:08;;;;;;;2.72;1.88;;;9.60;56.40;;;;;;6836754;26;19997;-67
2024/04/25 02:31:13;;;;;;;4.63;1.88;;;9.50;56.60;;;;;;6836235;26;20016;-66
2024/04/25 02:34:14;;;;;;;5.00;1.52;;;9.40;56.70;;;;;;6804226;26;20144;-66
2024/04/25 02:37:16;;;;;;;2.53;1.65;;;9.30;56.70;;;;;;6772850;26;19998;-66
2024/04/25 02:40:17;;;;;;;2.45;1.30;;;9.30;56.90;;;;;;6836382;25;20091;-66
2024/04/25 02:43:18;;;;;;;3.90;1.92;;;9.20;57.50;;;;;;6809501;26;20469;-64
2024/04/25 02:46:18;;;;;;;2.80;1.52;;;9.20;57.10;;;;;;6804510;26;20016;-66
2024/04/25 02:49:21;;;;;;;1.65;1.20;;;9.10;57.20;;;;;;6802054;26;20313;-67
2024/04/25 02:52:22;;;;;;;4.85;1.30;;;9.10;57.30;;;;;;6774944;26;20356;-67
2024/04/25 02:55:23;;;;;;;1.95;1.20;;;9.00;57.40;;;;;;6808225;26;20372;-67
2024/04/25 02:58:24;;;;;;;8.35;1.92;;;8.90;57.40;;;;;;6817317;26;20005;-67
2024/04/25 03:01:25;;;;;;;2.42;1.73;;;8.90;57.40;;;;;;6838338;26;20009;-67
2024/04/25 03:04:26;;;;;;;1.73;1.33;;;8.80;57.40;;;;;;6838890;26;20112;-67
2024/04/25 03:07:27;;;;;;;5.78;2.30;;;8.80;57.50;;;;;;6838512;26;20073;-67
2024/04/25 03:10:27;;;;;;;3.95;1.83;;;8.70;57.50;;;;;;6838208;26;20095;-67
2024/04/25 03:13:28;;;;;;;2.55;1.38;;;8.70;57.50;;;;;;6841287;25;20023;-68
2024/04/25 03:16:29;;;;;;;2.92;1.52;;;8.70;57.60;;;;;;6838841;26;20001;-67
2024/04/25 03:19:30;;;;;;;1.55;1.33;;;8.70;57.50;;;;;;6777190;26;19998;-67
2024/04/25 03:22:31;;;;;;;1.80;1.20;;;8.70;57.40;;;;;;6839672;25;20093;-67
2024/04/25 03:25:33;;;;;;;3.22;1.25;;;8.70;57.30;;;;;;6837349;26;20037;-68
2024/04/25 03:28:34;;;;;;;3.65;1.35;;;8.70;57.10;;;;;;6837261;26;20000;-67
2024/04/25 03:31:35;;;;;;;1.27;0.88;;;8.80;56.90;;;;;;6838160;26;20005;-68
2024/04/25 03:34:37;;;;;;;4.32;1.25;;;8.80;56.70;;;;;;6808061;25;20409;-67
2024/04/25 03:37:37;;;;;;;1.80;1.27;;;8.80;56.50;;;;;;6806555;26;19993;-67
2024/04/25 03:40:39;;;;;;;1.92;1.23;;;8.80;56.40;;;;;;6837590;26;20009;-67
2024/04/25 03:43:40;;;;;;;4.20;2.00;;;8.90;56.50;;;;;;6808139;26;20008;-67
2024/04/25 03:46:41;;;;;;;4.03;1.40;;;8.90;56.50;;;;;;6808182;26;19997;-67
2024/04/25 03:49:43;;;;;;;5.18;1.92;;;8.90;56.50;;;;;;6838435;26;20847;-67
2024/04/25 03:52:45;;;;;;;7.30;1.73;;;8.90;56.50;;;;;;6839401;26;20050;-67
2024/04/25 03:55:47;;;;;;;3.58;1.67;;;8.90;56.50;;;;;;6838950;26;20021;-69
2024/04/25 03:58:49;;;;;;;1.80;1.27;;;8.90;56.50;;;;;;6840264;25;20009;-67
2024/04/25 04:01:50;;;;;;;2.85;1.35;;;9.00;56.50;;;;;;6806475;26;20004;-67
2024/04/25 04:04:51;;;;;;;7.20;1.98;;;9.00;56.30;;;;;;6776095;26;20065;-67
2024/04/25 04:07:52;;;;;;;1.85;1.30;;;9.00;56.20;;;;;;6806947;26;20028;-66
2024/04/25 04:10:52;;;;;;;11.60;1.95;;;9.00;56.00;;;;;;6808684;26;20079;-68
2024/04/25 04:13:53;;;;;;;4.55;1.90;;;9.10;55.90;;;;;;6777263;26;20021;-66
2024/04/25 04:16:57;;;;;;;5.07;1.70;;;9.10;55.90;;;;;;6776570;26;20008;-69
2024/04/25 04:19:57;;;;;;;1.73;1.42;;;9.10;55.90;;;;;;6805500;26;19997;-67
2024/04/25 04:22:58;;;;;;;3.40;1.92;;;9.10;55.90;;;;;;6806047;26;20496;-66
2024/04/25 04:25:59;;;;;;;5.28;1.85;;;9.20;55.90;;;;;;6838997;26;20329;-67
2024/04/25 04:29:01;;;;;;;5.03;2.17;;;9.20;55.90;;;;;;6838939;26;20034;-67
2024/04/25 04:32:02;;;;;;;8.88;2.35;;;9.10;55.90;;;;;;6806279;26;20009;-67
2024/04/25 04:35:03;;;;;;;1.77;1.10;;;9.10;56.00;;;;;;6805077;26;20013;-69
2024/04/25 04:38:04;;;;;;;1.90;1.50;;;9.10;56.10;;;;;;6838445;26;20012;-68
2024/04/25 04:41:06;;;;;;;2.85;1.63;;;9.00;56.20;;;;;;6837629;26;20147;-67
2024/04/25 04:44:06;;;;;;;2.60;1.88;;;9.10;56.30;;;;;;6836299;25;20273;-67
2024/04/25 04:47:09;;;;;;;8.00;2.05;;;9.00;56.50;;;;;;6812739;25;19993;-68
2024/04/25 04:50:10;;;;;;;2.92;1.85;;;9.00;56.90;;;;;;6805416;26;20348;-66
2024/04/25 04:53:11;;;;;;;5.78;2.70;;;8.90;57.20;;;;;;6838536;26;20021;-66
2024/04/25 04:56:12;;;;;;;3.47;2.28;;;8.90;57.50;;;;;;6744990;26;19997;-66
2024/04/25 04:59:13;;;;;;;3.40;1.92;;;8.90;57.60;;;;;;6826980;25;20005;-66
2024/04/25 05:02:14;;;;;;;2.65;2.13;;;8.90;57.80;;;;;;6838214;26;20066;-67
2024/04/25 05:05:15;;;;;;;9.35;2.60;;;8.90;58.00;;;;;;6836855;26;20134;-67
2024/04/25 05:08:17;;;;;;;5.35;2.97;;;8.90;58.10;;;;;;6836773;26;20839;-67
2024/04/25 05:11:18;;;;;;;3.70;2.45;;;8.90;58.20;;;;;;6836455;26;20442;-68
2024/04/25 05:14:19;;;;;;;7.97;3.60;;;8.90;58.30;;;;;;6836965;25;20136;-67
2024/04/25 05:17:19;;;;;;;6.50;2.80;;;8.90;58.30;;;;;;6836441;26;19998;-68
2024/04/25 05:20:20;;;;;;;4.47;2.83;;;8.90;58.40;;;;;;6834989;26;20001;-68
2024/04/25 05:23:22;;;;;;;3.65;2.17;;;8.90;58.40;;;;;;6835593;26;20026;-68
2024/04/25 05:26:24;;;;;;;7.13;3.38;;;8.90;58.40;;;;;;6804722;26;20074;-67
2024/04/25 05:29:24;;;;;;;9.52;3.47;;;9.00;58.50;;;;;;6834482;25;20001;-70
2024/04/25 05:32:25;;;;;;;15.30;3.78;;;9.00;58.40;;;;;;6804305;26;19997;-66
2024/04/25 05:35:27;;;;;;;7.40;3.08;;;9.00;58.30;;;;;;6833874;26;19997;-67
2024/04/25 05:38:28;;;;;;;9.25;3.72;;;9.00;58.20;;;;;;6835364;26;20544;-66
2024/04/25 05:41:28;;;;;;;6.35;3.38;;;9.20;58.20;;;;;;6837411;25;20008;-69
2024/04/25 05:44:29;;;;;;;5.95;2.72;;;9.10;58.00;;;;;;6834972;26;20009;-67
2024/04/25 05:47:30;;;;;;;7.22;3.17;;;9.20;57.90;;;;;;6773958;26;20007;-67
2024/04/25 05:50:31;;;;;;;8.77;3.92;;;9.20;57.70;;;;;;6804806;26;20409;-66
2024/04/25 05:53:32;;;;;;;4.10;2.60;;;9.30;57.60;;;;;;6835209;26;20117;-65
2024/04/25 05:56:33;;;;;;;9.25;3.78;;;9.30;57.50;;;;;;6834395;26;20494;-67
2024/04/25 05:59:36;;;;;;;6.55;3.17;;;9.30;57.30;;;;;;6835761;25;20035;-67
2024/04/25 06:02:36;;;;;;;7.80;3.13;;;9.40;57.30;;;;;;6803200;26;20001;-66
2024/04/25 06:05:37;;;;;;;6.75;3.55;;;9.40;57.20;;;;;;6802699;26;20670;-68
2024/04/25 06:08:38;;;;;;;10.32;3.05;;;9.50;57.10;;;;;;6803596;26;19989;-66
2024/04/25 06:11:39;;;;;;;9.13;3.22;;;9.50;57.00;;;;;;6772185;26;20485;-67
2024/04/25 06:14:43;;;;;;;9.15;3.75;;;9.60;56.90;;;;;;6802999;26;20013;-68
2024/04/25 06:17:43;;;;;;;6.95;3.25;;;9.60;56.80;;;;;;6801842;26;20810;-68
2024/04/25 06:20:44;;;;;;;11.98;4.68;;;9.70;56.90;;;;;;6803197;25;20012;-67
2024/04/25 06:23:45;;;;;;;8.30;4.25;;;9.80;56.90;;;;;;6773329;26;20073;-67
2024/04/25 06:26:46;;;;;;;11.30;4.50;;;9.90;56.80;;;;;;6771558;26;19998;-68
2024/04/25 06:29:47;;;;;;;7.85;4.03;;;9.90;56.60;;;;;;6835504;26;20073;-68
2024/04/25 06:32:48;;;;;;;9.60;3.55;;;10.00;56.50;;;;;;6802400;26;20430;-67
2024/04/25 06:35:49;;;;;;;10.02;3.58;;;10.00;56.40;;;;;;6833973;26;20008;-66
2024/04/25 06:38:50;;;;;;;9.43;3.50;;;10.10;56.30;;;;;;6804788;26;20013;-67
2024/04/25 06:41:51;;;;;;;11.38;4.20;;;10.10;56.20;;;;;;6795619;26;20077;-68
2024/04/25 06:44:51;;;;;;;5.82;3.42;;;10.20;56.10;;;;;;6804762;26;20017;-66
2024/04/25 06:47:54;;;;;;;6.78;3.42;;;10.30;56.00;;;;;;6804165;26;20431;-67
2024/04/25 06:50:55;;;;;;;6.60;3.85;;;10.50;55.80;;;;;;6805079;26;19998;-68
2024/04/25 06:53:56;;;;;;;5.22;2.80;;;10.60;55.50;;;;;;6802809;26;20456;-66
2024/04/25 06:56:57;;;;;;;7.95;3.33;;;10.70;55.40;;;;;;6806834;26;19997;-68
2024/04/25 06:59:58;;;;;;;6.05;3.53;;;10.80;55.20;;;;;;6836595;26;20013;-67
2024/04/25 07:03:00;;;;;;;7.95;3.20;;;10.90;54.90;;;;;;6803322;26;20333;-67
2024/04/25 07:06:34;;;;;;;9.95;3.63;;;11.00;54.80;;;;;;6802270;26;20005;-66
2024/04/25 07:09:37;;;;;;;8.27;3.53;;;11.10;54.40;;;;;;6835952;26;20001;-67
2024/04/25 07:12:37;;;;;;;10.43;3.17;;;11.20;53.80;;;;;;6803897;26;20074;-67
2024/04/25 07:15:39;;;;;;;4.90;3.20;;;11.20;53.40;;;;;;6836163;26;20433;-69
2024/04/25 07:18:41;;;;;;;7.43;2.55;;;11.20;53.00;;;;;;6772412;26;19998;-68
2024/04/25 07:21:41;;;;;;;3.65;1.80;;;11.30;52.70;;;;;;6803669;26;20001;-68
2024/04/25 07:24:44;;;;;;;2.60;1.83;;;11.30;52.60;;;;;;6835988;26;20013;-68
2024/04/25 07:27:45;;;;;;;3.33;2.25;;;11.40;51.60;;;;;;6775787;26;20013;-68
2024/04/25 07:30:48;;;;;;;6.28;2.33;;;11.50;51.60;;;;;;6795860;26;19997;-67
2024/04/25 07:33:50;;;;;;;4.20;2.20;;;11.70;51.50;;;;;;6802399;26;20005;-69
2024/04/25 07:36:51;;;;;;;11.48;3.17;;;11.80;51.20;;;;;;6803127;26;20021;-68
2024/04/25 07:39:52;;;;;;;7.97;2.22;;;11.90;50.90;;;;;;6777129;26;20001;-66
2024/04/25 07:42:54;;;;;;;6.75;3.17;;;12.10;50.50;;;;;;6799668;26;20065;-69
2024/04/25 07:45:55;;;;;;;4.88;2.40;;;12.10;50.30;;;;;;6839063;26;19998;-68
2024/04/25 07:48:56;;;;;;;7.57;2.53;;;12.20;49.80;;;;;;6806091;26;19993;-68
2024/04/25 07:51:57;;;;;;;6.85;2.83;;;12.30;49.80;;;;;;6806456;26;20406;-67
2024/04/25 07:54:58;;;;;;;4.85;2.53;;;12.50;49.90;;;;;;6776877;26;20001;-66
2024/04/25 07:58:00;;;;;;;7.75;2.53;;;12.60;49.40;;;;;;6810903;26;20750;-68
2024/04/25 08:01:02;;;;;;;9.07;2.80;;;12.70;48.90;;;;;;6837360;26;20078;-69
2024/04/25 08:04:03;;;;;;;8.18;2.78;;;12.80;48.60;;;;;;6839907;25;20008;-67
2024/04/25 08:07:04;;;;;;;8.60;2.30;;;13.00;48.60;;;;;;6839835;26;20018;-67
2024/04/25 08:10:07;;;;;;;5.07;2.72;;;13.10;48.40;;;;;;6838777;26;20009;-68
2024/04/25 08:13:09;;;;;;;6.25;2.47;;;13.20;48.20;;;;;;6840843;25;19997;-68
2024/04/25 08:16:09;;;;;;;5.15;2.72;;;13.40;47.70;;;;;;6839412;25;20073;-66
2024/04/25 08:19:12;;;;;;;7.07;3.20;;;13.50;47.20;;;;;;6830612;26;20407;-67
2024/04/25 08:22:15;;;;;;;12.32;3.58;;;13.50;46.90;;;;;;6795450;26;20013;-69
2024/04/25 08:25:16;;;;;;;6.07;2.63;;;13.70;46.60;;;;;;6805582;26;20001;-67
2024/04/25 08:28:18;;;;;;;12.50;2.90;;;13.80;46.50;;;;;;6838465;25;20028;-67
2024/04/25 08:31:19;;;;;;;18.63;2.65;;;13.90;46.40;;;;;;6803424;26;20069;-68
2024/04/25 08:34:20;;;;;;;8.68;2.38;;;14.00;45.80;;;;;;6839034;26;20009;-67
2024/04/25 08:37:21;;;;;;;7.03;3.03;;;14.00;45.50;;;;;;6837004;26;19997;-68
2024/04/25 08:40:22;;;;;;;6.97;2.47;;;14.10;45.80;;;;;;6839390;25;20029;-66
2024/04/25 08:43:24;;;;;;;4.85;2.30;;;14.20;45.80;;;;;;6835952;26;20012;-68
2024/04/25 08:46:26;;;;;;;6.15;2.70;;;14.40;45.20;;;;;;6805976;26;20004;-67
2024/04/25 08:49:32;;;;;;;3.85;2.00;;;14.40;44.30;;;;;;6835308;26;20007;-68
2024/04/25 08:52:37;;;;;;;5.50;2.17;;;14.40;43.80;;;;;;6837732;26;20402;-68
2024/04/25 08:55:41;;;;;;;4.55;2.03;;;14.60;44.10;;;;;;6835584;26;20016;-68
2024/04/25 08:58:44;;;;;;;5.43;1.80;;;14.70;43.90;;;;;;6838552;25;20042;-68
2024/04/25 09:01:48;;;;;;;5.25;1.80;;;14.80;43.70;;;;;;6776769;26;20540;-68
2024/04/25 09:04:53;;;;;;;6.10;2.70;;;14.90;43.30;;;;;;6806098;26;20470;-67
2024/04/25 09:07:55;;;;;;;5.47;1.83;;;15.00;42.60;;;;;;6806908;26;20103;-68
2024/04/25 09:10:59;;;;;;;2.38;1.50;;;15.00;41.90;;;;;;6803420;25;20009;-67
2024/04/25 09:14:00;;;;;;;10.65;1.98;;;15.10;41.40;;;;;;6765023;26;20015;-68
2024/04/25 09:17:00;;;;;;;7.55;2.35;;;15.10;41.40;;;;;;6790885;26;20002;-68
2024/04/25 09:20:01;;;;;;;5.78;1.95;;;15.10;41.50;;;;;;6810231;26;20434;-68
2024/04/25 09:23:02;;;;;;;11.88;3.13;;;15.30;41.40;;;;;;6833295;26;20013;-67
2024/04/25 09:26:03;;;;;;;4.68;1.67;;;15.40;40.80;;;;;;6806480;26;20718;-67
2024/04/25 09:29:04;;;;;;;4.97;1.92;;;15.60;40.60;;;;;;6838106;26;20009;-69
2024/04/25 09:32:14;;;;;;;3.33;1.65;;;15.70;39.40;;;;;;6776096;26;20057;-69
2024/04/25 09:35:15;;;;;;;5.78;1.35;;;15.70;39.00;;;;;;6806605;26;20025;-67
2024/04/25 09:38:16;;;;;;;2.90;1.10;;;15.70;38.40;;;;;;6776157;26;20464;-68
2024/04/25 09:41:18;;;;;;;5.43;1.70;;;15.70;37.40;;;;;;6807740;26;20001;-66
2024/04/25 09:44:20;;;;;;;3.78;1.80;;;15.60;37.20;;;;;;6805141;26;20028;-69
2024/04/25 09:47:32;;;;;;;6.95;1.80;;;15.60;37.40;;;;;;6774168;26;19989;-68
2024/04/25 09:50:40;;;;;;;4.78;1.35;;;15.70;36.80;;;;;;6805470;26;20011;-69
2024/04/25 09:53:59;;;;;;;2.45;1.42;;;15.70;36.70;;;;;;6819639;25;20006;-67
2024/04/25 09:57:04;;;;;;;3.88;1.80;;;15.80;36.50;;;;;;6841954;25;20068;-67
2024/04/25 10:00:10;;;;;;;3.88;1.08;;;16.00;34.40;;;;;;6851173;25;20763;-68
2024/04/25 10:03:12;;;;;;;1.55;1.05;;;15.90;34.40;;;;;;6853763;25;20080;-70
2024/04/25 10:06:14;;;;;;;1.60;1.10;;;16.00;34.90;;;;;;6800995;26;20032;-68
2024/04/25 10:09:15;;;;;;;1.60;0.93;;;16.00;34.10;;;;;;6763130;26;20034;-70
2024/04/25 10:12:25;;;;;;;2.13;1.08;;;16.10;32.90;;;;;;6809059;25;19993;-68
2024/04/25 10:15:31;;;;;;;4.35;1.40;;;16.20;33.10;;;;;;6731603;26;20372;-69
2024/04/25 10:18:32;;;;;;;6.55;1.70;;;16.20;32.10;;;;;;6733546;26;20002;-69
2024/04/25 10:21:45;;;;;;;1.77;0.90;;;16.30;32.40;;;;;;6833666;26;20053;-67
2024/04/25 10:24:47;;;;;;;6.25;1.40;;;16.40;32.40;;;;;;6746278;26;20141;-69
2024/04/25 10:28:02;;;;;;;3.78;1.60;;;16.50;31.70;;;;;;6806032;26;19998;-70
2024/04/25 10:31:03;;;;;;;1.75;1.00;;;16.70;31.10;;;;;;6777230;26;20073;-68
2024/04/25 10:34:05;;;;;;;7.28;1.15;;;16.80;31.00;;;;;;6807817;26;20811;-68
2024/04/25 10:37:06;;;;;;;1.67;1.17;;;16.90;31.00;;;;;;6795312;26;20815;-69
2024/04/25 10:40:08;;;;;;;2.00;0.80;;;17.00;30.00;;;;;;6804359;26;20002;-68
2024/04/25 10:43:08;;;;;;;5.03;0.95;;;17.00;29.40;;;;;;6804547;26;20073;-69
2024/04/25 10:46:09;;;;;;;6.30;1.10;;;16.90;29.20;;;;;;6745481;26;19998;-68
2024/04/25 10:49:10;;;;;;;1.75;1.05;;;17.00;29.30;;;;;;6773480;26;20123;-68
2024/04/25 10:52:13;;;;;;;1.70;1.10;;;17.40;28.70;;;;;;6836662;26;20012;-67
2024/04/25 10:55:14;;;;;;;1.00;0.77;;;18.20;28.20;;;;;;6800183;26;20012;-70
2024/04/25 10:58:16;;;;;;;3.55;1.23;;;18.90;27.50;;;;;;6836461;26;20342;-68
2024/04/25 11:01:24;;;;;;;1.80;0.82;;;19.60;26.80;;;;;;6804066;26;19997;-68
2024/04/25 11:04:32;;;;;;;0.68;0.60;;;20.30;25.50;;;;;;6837021;26;20013;-67
2024/04/25 11:07:36;;;;;;;;;;;20.80;24.50;;;;;;6805125;26;20683;-68
2024/04/25 11:10:38;;;;;;;4.80;1.10;;;21.00;23.80;;;;;;6803474;25;19924;-68
2024/04/25 11:13:40;;;;;;;1.55;0.75;;;21.20;23.30;;;;;;6805962;26;20001;-68
2024/04/25 11:16:43;;;;;;;2.22;0.85;;;21.40;23.40;;;;;;6841203;26;19993;-67
2024/04/25 11:19:45;;;;;;;1.10;0.80;;;21.60;22.90;;;;;;6808993;26;20302;-68
2024/04/25 11:22:46;;;;;;;4.93;1.52;;;21.70;22.60;;;;;;6841978;26;19993;-68
2024/04/25 11:25:48;;;;;;;2.97;1.00;;;21.80;22.80;;;;;;6779463;26;19993;-68
2024/04/25 11:28:50;;;;;;;3.47;0.90;;;22.10;23.00;;;;;;6841846;26;19997;-69
2024/04/25 11:31:52;;;;;;;1.08;0.63;;;22.50;22.90;;;;;;6841420;26;20000;-68
2024/04/25 11:34:52;;;;;;;2.83;0.70;;;22.90;22.40;;;;;;6837381;25;19998;-68
2024/04/25 11:37:56;;;;;;;2.10;0.77;;;23.30;21.90;;;;;;6808006;26;20001;-68
2024/04/25 11:40:58;;;;;;;4.70;1.05;;;23.60;21.70;;;;;;6840754;26;19998;-69
2024/04/25 11:44:00;;;;;;;1.05;0.73;;;24.00;21.00;;;;;;6840863;26;19993;-67
2024/04/25 11:47:02;;;;;;;5.22;2.55;;;24.10;20.60;;;;;;6841423;26;19989;-69
2024/04/25 11:50:05;;;;;;;2.80;0.50;;;24.20;19.90;;;;;;6840943;26;19994;-68
2024/04/25 11:53:09;;;;;;;0.85;0.63;;;24.10;20.10;;;;;;6807987;26;20132;-68
2024/04/25 11:56:10;;;;;;;1.67;0.93;;;24.30;20.20;;;;;;6807735;25;19998;-66
2024/04/25 11:59:12;;;;;;;1.13;0.70;;;24.70;20.20;;;;;;6824331;26;20401;-69
2024/04/25 12:02:14;;;;;;;3.90;0.98;;;25.00;20.00;;;;;;6838600;25;20001;-66
2024/04/25 12:05:15;;;;;;;2.03;0.70;;;25.40;19.80;;;;;;6831881;25;19997;-68
2024/04/25 12:08:17;;;;;;;5.47;1.20;;;25.80;19.20;;;;;;6838947;25;20159;-67
2024/04/25 12:11:18;;;;;;;6.93;2.47;;;26.20;19.00;;;;;;6802377;25;19998;-68
2024/04/25 12:14:19;;;;;;;3.40;1.30;;;26.50;18.80;;;;;;6808774;26;19993;-68
2024/04/25 12:17:23;;;;;;;2.10;0.88;;;27.00;18.70;;;;;;6843080;25;20029;-68
2024/04/25 12:20:24;;;;;;;4.13;1.98;;;27.30;18.30;;;;;;6809157;26;20017;-69
2024/04/25 12:23:25;;;;;;;15.95;1.50;;;27.70;18.10;;;;;;6807981;25;20327;-69
2024/04/25 12:26:26;;;;;;;1.75;0.75;;;28.00;17.70;;;;;;6837818;26;20001;-67
2024/04/25 12:29:28;;;;;;;0.68;0.60;;;28.30;16.80;;;;;;6838658;26;19998;-68
2024/04/25 12:32:29;;;;;;;1.25;0.63;;;28.20;16.00;;;;;;6838866;25;20485;-69
2024/04/25 12:35:30;;;;;;;1.23;0.68;;;27.90;16.20;;;;;;6837105;26;20015;-69
2024/04/25 12:38:34;;;;;;;1.27;0.80;;;28.00;16.30;;;;;;6840903;26;20031;-71
2024/04/25 12:41:35;;;;;;;0.80;0.50;;;28.00;16.00;;;;;;6809925;25;20001;-70
2024/04/25 12:44:41;;;;;;;1.50;0.60;;;28.10;16.40;;;;;;6838389;26;19993;-70
2024/04/25 12:47:42;;;;;;;0.73;0.60;;;28.50;16.30;;;;;;6838116;26;20058;-69
2024/04/25 12:50:43;;;;;;;1.70;0.70;;;29.00;16.20;;;;;;6837178;25;19997;-67
2024/04/25 12:53:45;;;;;;;1.77;0.85;;;29.40;15.70;;;;;;6835989;26;19998;-68
2024/04/25 12:56:46;;;;;;;0.88;0.57;;;29.40;15.40;;;;;;6837572;26;20062;-68
2024/04/25 12:59:47;;;;;;;1.83;0.90;;;29.40;15.20;;;;;;6837816;26;20033;-66
2024/04/25 13:02:48;;;;;;;1.85;0.80;;;29.60;15.30;;;;;;6840180;26;20044;-68
2024/04/25 13:05:49;;;;;;;3.03;0.80;;;30.30;15.10;;;;;;6806696;26;20012;-68
2024/04/25 13:08:49;;;;;;;1.98;0.80;;;30.80;14.70;;;;;;6836251;25;19994;-69
2024/04/25 13:11:50;;;;;;;1.75;0.65;;;31.20;14.50;;;;;;6841009;26;19997;-68
2024/04/25 13:14:52;;;;;;;8.25;0.88;;;31.50;14.20;;;;;;6805199;26;20009;-70
2024/04/25 13:17:54;;;;;;;0.98;0.70;;;31.80;14.20;;;;;;6790267;26;20407;-68
2024/04/25 13:20:56;;;;;;;1.33;0.77;;;32.10;14.10;;;;;;6801677;26;20045;-70
2024/04/25 13:23:57;;;;;;;1.98;0.60;;;32.60;14.80;;;;;;6799137;26;20012;-70
2024/04/25 13:31:27;;;;;;;0.50;0.40;;;34.20;13.80;;;;;;6839453;26;20345;-70
2024/04/25 13:34:29;;;;;;;1.83;0.63;;;35.30;13.40;;;;;;6836858;26;20012;-68
2024/04/25 13:37:31;;;;;;;2.70;0.70;;;35.90;13.20;;;;;;6835796;26;20139;-69
2024/04/25 13:40:32;;;;;;;1.52;0.60;;;36.50;12.90;;;;;;6837003;25;19998;-69
2024/04/25 13:43:32;;;;;;;1.88;0.60;;;36.90;12.70;;;;;;6837728;26;20073;-68
2024/04/25 13:46:35;;;;;;;1.85;0.82;;;37.00;12.50;;;;;;6798539;26;19997;-68
2024/04/25 13:49:38;;;;;;;1.15;0.70;;;37.20;12.40;;;;;;6839289;26;20012;-68
2024/04/25 13:52:40;;;;;;;2.58;0.70;;;37.50;12.10;;;;;;6837203;26;20008;-68
2024/04/25 13:55:41;;;;;;;1.00;0.70;;;37.20;11.80;;;;;;6835125;26;20452;-69
2024/04/25 13:58:42;;;;;;;1.13;0.60;;;36.60;12.00;;;;;;6805318;26;20017;-68
2024/04/25 14:01:42;;;;;;;3.72;0.60;;;36.20;12.10;;;;;;6805123;26;20438;-69
2024/04/25 14:04:44;;;;;;;1.42;0.40;;;36.10;12.10;;;;;;6774972;26;20294;-69
2024/04/25 14:07:46;;;;;;;4.43;1.05;;;36.00;12.10;;;;;;6836568;26;20019;-70
2024/04/25 14:10:49;;;;;;;0.80;0.40;;;36.20;12.10;;;;;;6803653;26;20003;-69
2024/04/25 14:13:52;;;;;;;0.52;0.50;;;36.50;12.00;;;;;;6771949;26;19997;-68
2024/04/25 14:16:52;;;;;;;2.03;0.45;;;36.60;11.80;;;;;;6804154;26;20009;-69
2024/04/25 14:19:53;;;;;;;1.58;0.63;;;36.60;11.60;;;;;;6775510;26;20385;-68
2024/04/25 14:22:54;;;;;;;0.40;0.40;;;36.40;11.40;;;;;;6773197;26;20009;-69
2024/04/25 14:29:25;;;;;;;2.55;0.70;;;34.50;11.90;;;;;;6717077;26;20130;-67
2024/04/25 14:32:26;;;;;;;0.60;0.30;;;32.50;12.80;;;;;;6666348;26;20003;-67
2024/04/25 14:35:26;;;;;;;0.30;0.30;;;31.00;13.50;;;;;;6706193;26;20003;-67
2024/04/25 14:38:27;;;;;;;5.22;0.40;;;29.70;14.10;;;;;;6704087;26;20332;-66
2024/04/25 14:41:28;;;;;;;0.40;0.30;;;28.50;14.70;;;;;;6669060;26;20004;-70
2024/04/25 14:44:29;;;;;;;0.52;0.50;;;27.60;15.30;;;;;;6669555;26;19991;-68
2024/04/25 14:47:30;;;;;;;0.28;0.28;;;26.70;15.90;;;;;;6722264;26;20082;-67
2024/04/25 14:50:31;;;;;;;1.25;0.63;;;25.70;17.10;;;;;;6779658;26;20010;-69
2024/04/25 14:53:31;;;;;;;1.33;0.82;;;24.90;17.70;;;;;;6744548;26;20110;-67
2024/04/25 14:56:32;;;;;;;1.55;0.45;;;24.20;17.80;;;;;;6683227;26;20010;-67
2024/04/25 14:59:33;;;;;;;3.63;0.70;;;23.70;18.20;;;;;;6702583;26;19995;-69
2024/04/25 15:02:34;;;;;;;1.73;0.63;;;23.30;18.60;;;;;;6716986;26;19995;-68
2024/04/25 15:05:35;;;;;;;8.38;0.65;;;23.00;19.00;;;;;;6747275;26;20006;-67
2024/04/25 15:08:37;;;;;;;1.25;0.45;;;22.70;19.30;;;;;;6777277;26;20001;-68
2024/04/25 15:11:38;;;;;;;2.15;0.30;;;22.30;19.50;;;;;;6777363;26;20465;-67
2024/04/25 15:14:39;;;;;;;0.50;0.50;;;22.10;19.90;;;;;;6807016;25;20068;-68
2024/04/25 15:17:41;;;;;;;1.05;0.60;;;22.00;20.60;;;;;;6805942;26;20210;-68
2024/04/25 15:20:42;;;;;;;0.43;0.43;;;22.00;20.30;;;;;;6807423;26;20016;-68
2024/04/25 15:23:43;;;;;;;0.75;0.50;;;21.90;20.40;;;;;;6806447;26;20001;-68
2024/04/25 15:26:44;;;;;;;1.83;0.70;;;21.90;20.60;;;;;;6840014;25;20005;-69
2024/04/25 15:29:46;;;;;;;2.30;0.80;;;21.90;20.60;;;;;;6807977;26;20039;-68
2024/04/25 15:32:49;;;;;;;2.38;0.75;;;21.80;20.80;;;;;;6806989;26;20003;-68
2024/04/25 15:35:50;;;;;;;1.60;0.77;;;21.60;21.00;;;;;;6770493;25;20056;-70
2024/04/25 15:38:50;;;;;;;0.60;0.55;;;21.40;21.20;;;;;;6777251;26;20719;-67
2024/04/25 15:41:51;;;;;;;1.70;0.60;;;21.20;21.40;;;;;;6839901;26;20026;-68
2024/04/25 15:44:53;;;;;;;5.22;1.10;;;21.00;21.50;;;;;;6806638;26;20390;-69
2024/04/25 15:47:54;;;;;;;3.42;0.70;;;20.90;21.70;;;;;;6807109;26;20127;-68
2024/04/25 15:50:54;;;;;;;0.82;0.60;;;20.80;21.80;;;;;;6806612;26;20445;-68
2024/04/25 15:53:55;;;;;;;0.50;0.38;;;20.70;21.90;;;;;;6806573;25;20004;-69
2024/04/25 15:56:56;;;;;;;0.85;0.50;;;20.60;22.00;;;;;;6806423;26;20008;-68
2024/04/25 15:59:57;;;;;;;0.65;0.55;;;20.50;22.30;;;;;;6824575;26;19993;-68
2024/04/25 16:02:58;;;;;;;1.13;0.75;;;20.40;22.50;;;;;;6840775;26;20698;-67
2024/04/25 16:06:02;;;;;;;2.38;0.63;;;20.30;22.60;;;;;;6837669;26;20128;-68